Time;durP1;ratioP1;P1;durP2;ratioP2;P2;SDS_P1;SDS_P2;PMS_P1;PMS_P2;Temp;Humidity;BMP_temperature;BMP_pressure;BME280_temperature;BME280_humidity;BME280_pressure;Samples;Min_cycle;Max_cycle;Signal;HPM_P1;HPM_P2
2022/04/24 00:02:12;;;;;;;15.65;13.90;;;11.00;99.90;;;;;;4952212;29;20543;-78
2022/04/24 00:04:39;;;;;;;14.45;12.98;;;11.10;99.90;;;;;;4938764;29;20042;-77
2022/04/24 00:07:07;;;;;;;15.43;13.85;;;11.00;99.90;;;;;;4946929;29;20028;-79
2022/04/24 00:09:34;;;;;;;15.85;13.82;;;10.90;99.90;;;;;;4937725;29;20138;-78
2022/04/24 00:12:00;;;;;;;14.93;13.32;;;10.90;99.90;;;;;;4954729;29;20043;-79
2022/04/24 00:14:26;;;;;;;14.93;13.43;;;10.80;99.90;;;;;;4953955;29;20023;-76
2022/04/24 00:16:52;;;;;;;14.07;12.63;;;10.80;99.90;;;;;;4954988;29;20086;-78
2022/04/24 00:19:19;;;;;;;14.07;12.68;;;10.80;99.90;;;;;;4943842;29;20032;-78
2022/04/24 00:21:45;;;;;;;14.75;13.25;;;10.80;99.90;;;;;;4944850;29;20063;-78
2022/04/24 00:24:10;;;;;;;14.88;13.38;;;10.90;99.90;;;;;;4930528;29;20039;-77
2022/04/24 00:26:37;;;;;;;15.60;13.82;;;10.90;99.90;;;;;;4950815;29;20133;-77
2022/04/24 00:29:02;;;;;;;15.35;13.75;;;11.00;99.90;;;;;;4950150;29;20028;-77
2022/04/24 00:31:28;;;;;;;14.88;12.43;;;11.10;99.90;;;;;;4940227;29;20109;-77
2022/04/24 00:33:53;;;;;;;16.75;12.73;;;11.20;99.90;;;;;;4949938;29;20031;-79
2022/04/24 00:36:19;;;;;;;14.75;13.23;;;11.30;99.90;;;;;;4956062;29;20026;-79
2022/04/24 00:38:44;;;;;;;14.30;12.88;;;11.30;99.90;;;;;;4951473;28;20022;-79
2022/04/24 00:41:10;;;;;;;15.98;13.45;;;11.40;99.90;;;;;;4946641;29;20111;-77
2022/04/24 00:43:35;;;;;;;14.35;12.88;;;11.30;99.90;;;;;;4936795;29;20020;-77
2022/04/24 00:46:13;;;;;;;16.73;14.93;;;11.40;99.90;;;;;;4961964;29;20031;-77
2022/04/24 00:48:40;;;;;;;15.15;13.65;;;11.30;99.90;;;;;;4938732;29;20031;-77
2022/04/24 00:51:08;;;;;;;14.32;12.82;;;11.40;99.90;;;;;;4955247;29;20086;-77
2022/04/24 00:53:33;;;;;;;14.77;12.65;;;11.40;99.90;;;;;;4935119;29;20023;-78
2022/04/24 00:56:00;;;;;;;17.90;13.77;;;11.40;99.90;;;;;;4959245;29;20106;-76
2022/04/24 00:58:26;;;;;;;15.07;13.48;;;11.40;99.90;;;;;;4952535;29;20066;-78
2022/04/24 01:00:52;;;;;;;15.68;14.07;;;11.50;99.90;;;;;;4937671;29;20023;-77
2022/04/24 01:03:18;;;;;;;15.48;13.13;;;11.50;99.90;;;;;;4954260;29;20513;-78
2022/04/24 01:05:44;;;;;;;16.98;13.90;;;11.50;99.90;;;;;;4952540;29;20028;-76
2022/04/24 01:08:09;;;;;;;15.30;13.70;;;11.50;99.90;;;;;;4949625;29;20027;-76
2022/04/24 01:10:39;;;;;;;14.32;12.88;;;11.40;99.90;;;;;;4958475;29;20062;-76
2022/04/24 01:13:05;;;;;;;13.88;12.48;;;11.40;99.90;;;;;;4955053;28;20031;-77
2022/04/24 01:15:31;;;;;;;14.73;13.32;;;11.20;99.90;;;;;;4951166;29;20066;-77
2022/04/24 01:17:58;;;;;;;14.15;12.75;;;11.20;99.90;;;;;;4949312;29;20454;-76
2022/04/24 01:20:24;;;;;;;13.90;12.48;;;11.20;99.90;;;;;;4950159;29;20082;-76
2022/04/24 01:22:49;;;;;;;13.63;12.23;;;11.20;99.90;;;;;;4952828;29;20032;-76
2022/04/24 01:25:15;;;;;;;13.40;12.10;;;11.40;99.90;;;;;;4955079;29;20035;-78
2022/04/24 01:27:40;;;;;;;13.50;12.10;;;11.40;99.90;;;;;;4933870;29;20213;-77
2022/04/24 01:30:07;;;;;;;14.38;12.57;;;11.40;99.90;;;;;;4949947;29;20034;-77
2022/04/24 01:32:33;;;;;;;13.85;12.43;;;11.30;99.90;;;;;;4951561;29;20046;-77
2022/04/24 01:35:00;;;;;;;13.38;12.07;;;11.30;99.90;;;;;;4954852;28;20071;-76
2022/04/24 01:37:25;;;;;;;14.15;12.65;;;11.30;99.90;;;;;;4954780;29;20020;-79
2022/04/24 01:39:56;;;;;;;13.30;12.05;;;11.10;99.90;;;;;;4972274;28;20031;-74
2022/04/24 01:42:22;;;;;;;12.93;11.63;;;11.20;99.90;;;;;;4981980;28;20011;-76
2022/04/24 01:44:48;;;;;;;13.23;12.02;;;11.30;99.90;;;;;;4977767;29;20058;-74
2022/04/24 01:47:13;;;;;;;12.98;11.55;;;11.20;99.90;;;;;;4975813;28;20152;-75
2022/04/24 01:49:39;;;;;;;14.45;12.65;;;11.30;99.90;;;;;;4951339;29;20099;-77
2022/04/24 01:52:06;;;;;;;13.75;12.30;;;11.20;99.90;;;;;;4953117;29;20031;-77
2022/04/24 01:54:31;;;;;;;13.20;11.60;;;11.00;99.90;;;;;;4934451;29;20638;-78
2022/04/24 01:56:57;;;;;;;14.63;13.23;;;11.10;99.90;;;;;;4956267;29;20044;-77
2022/04/24 01:59:23;;;;;;;12.68;11.45;;;11.00;99.90;;;;;;4951258;29;20028;-79
2022/04/24 02:01:49;;;;;;;14.23;11.60;;;11.20;99.90;;;;;;4947233;29;20019;-77
2022/04/24 02:04:15;;;;;;;14.55;13.10;;;11.10;99.90;;;;;;4944951;29;20019;-77
2022/04/24 02:06:41;;;;;;;13.32;12.02;;;11.00;99.90;;;;;;4943935;29;20028;-77
2022/04/24 02:09:06;;;;;;;13.80;12.40;;;11.00;99.90;;;;;;4947374;29;20074;-76
2022/04/24 02:11:32;;;;;;;13.63;12.27;;;11.00;99.90;;;;;;4945757;29;20030;-77
2022/04/24 02:13:57;;;;;;;16.13;12.75;;;11.00;99.90;;;;;;4954956;29;20051;-76
2022/04/24 02:16:23;;;;;;;15.80;13.20;;;11.00;99.90;;;;;;4943656;29;20096;-77
2022/04/24 02:18:48;;;;;;;13.98;12.57;;;11.00;99.90;;;;;;4942710;29;20028;-78
2022/04/24 02:21:14;;;;;;;12.57;11.38;;;11.00;99.90;;;;;;4946417;29;20043;-77
2022/04/24 02:23:39;;;;;;;13.32;12.00;;;11.00;99.90;;;;;;4954135;29;20390;-76
2022/04/24 02:26:05;;;;;;;14.27;12.88;;;11.00;99.90;;;;;;4930719;29;20034;-77
2022/04/24 02:28:31;;;;;;;13.57;12.18;;;11.00;99.90;;;;;;4937574;29;20106;-76
2022/04/24 02:30:56;;;;;;;13.60;11.75;;;11.00;99.90;;;;;;4948722;29;20028;-77
2022/04/24 02:33:22;;;;;;;16.00;12.13;;;11.00;99.90;;;;;;4938526;29;20034;-78
2022/04/24 02:35:47;;;;;;;16.05;12.48;;;10.90;99.90;;;;;;4946626;29;20106;-76
2022/04/24 02:38:13;;;;;;;14.48;13.02;;;10.90;99.90;;;;;;4943162;28;20545;-76
2022/04/24 02:40:39;;;;;;;14.82;13.25;;;10.90;99.90;;;;;;4954100;29;20031;-76
2022/04/24 02:43:05;;;;;;;14.32;12.93;;;10.90;99.90;;;;;;4936396;29;20031;-75
2022/04/24 02:45:30;;;;;;;13.65;12.30;;;10.90;99.90;;;;;;4953914;28;20082;-78
2022/04/24 02:47:56;;;;;;;16.45;13.95;;;10.90;99.90;;;;;;4953843;29;20031;-76
2022/04/24 02:50:23;;;;;;;16.27;12.30;;;10.90;99.90;;;;;;4968362;28;20023;-76
2022/04/24 02:52:53;;;;;;;15.90;14.32;;;10.80;99.90;;;;;;4953804;29;20030;-76
2022/04/24 02:55:20;;;;;;;16.10;14.43;;;10.80;99.90;;;;;;4946523;29;20510;-77
2022/04/24 02:57:46;;;;;;;15.45;13.95;;;10.70;99.90;;;;;;4954215;28;20034;-76
2022/04/24 03:00:13;;;;;;;17.17;14.60;;;10.70;99.90;;;;;;4929518;29;20023;-76
2022/04/24 03:02:42;;;;;;;15.85;13.68;;;10.70;99.90;;;;;;4952295;29;20023;-77
2022/04/24 03:05:17;;;;;;;16.13;14.52;;;10.70;99.90;;;;;;4936494;29;20058;-78
2022/04/24 03:07:43;;;;;;;18.08;16.17;;;10.60;99.90;;;;;;4929648;29;20024;-76
2022/04/24 03:10:10;;;;;;;18.73;15.35;;;10.60;99.90;;;;;;4936481;29;20030;-77
2022/04/24 03:12:36;;;;;;;17.10;14.48;;;10.50;99.90;;;;;;4952733;29;20130;-77
2022/04/24 03:15:07;;;;;;;16.52;14.82;;;10.50;99.90;;;;;;4927870;29;20033;-77
2022/04/24 03:17:33;;;;;;;17.42;15.52;;;10.50;99.90;;;;;;4949724;29;20410;-78
2022/04/24 03:20:05;;;;;;;17.15;15.35;;;10.50;99.90;;;;;;4929097;29;20519;-76
2022/04/24 03:22:33;;;;;;;16.75;14.57;;;10.40;99.90;;;;;;4936482;29;20031;-77
2022/04/24 03:24:59;;;;;;;16.65;15.05;;;10.40;99.90;;;;;;4948533;29;20033;-76
2022/04/24 03:27:24;;;;;;;18.10;16.10;;;10.30;99.90;;;;;;4954463;29;20118;-77
2022/04/24 03:29:50;;;;;;;18.75;16.20;;;10.30;99.90;;;;;;4947502;29;20590;-77
2022/04/24 03:32:15;;;;;;;17.50;15.18;;;10.30;99.90;;;;;;4951815;29;20038;-76
2022/04/24 03:34:41;;;;;;;18.58;15.98;;;10.30;99.90;;;;;;4945724;29;20437;-76
2022/04/24 03:37:07;;;;;;;17.08;15.20;;;10.30;99.90;;;;;;4928382;29;20063;-75
2022/04/24 03:39:32;;;;;;;19.88;15.98;;;10.30;99.90;;;;;;4954036;29;20394;-77
2022/04/24 03:41:58;;;;;;;17.85;15.70;;;10.30;99.90;;;;;;4946464;29;20035;-77
2022/04/24 03:44:24;;;;;;;17.67;15.65;;;10.30;99.90;;;;;;4952985;29;20347;-77
2022/04/24 03:46:49;;;;;;;18.10;16.17;;;10.30;99.90;;;;;;4948680;29;20027;-76
2022/04/24 03:49:16;;;;;;;23.20;16.77;;;10.30;99.90;;;;;;4956800;28;20114;-75
2022/04/24 03:51:42;;;;;;;17.65;15.77;;;10.30;99.90;;;;;;4947871;29;20029;-75
2022/04/24 03:54:08;;;;;;;18.27;16.48;;;10.30;99.90;;;;;;4934669;29;20024;-77
2022/04/24 03:56:33;;;;;;;18.13;16.08;;;10.30;99.90;;;;;;4935387;29;20043;-76
2022/04/24 03:58:59;;;;;;;17.80;16.00;;;10.40;99.90;;;;;;4946568;29;20040;-77
2022/04/24 04:01:24;;;;;;;17.30;15.60;;;10.40;99.90;;;;;;4938443;29;20023;-80
2022/04/24 04:03:51;;;;;;;19.70;17.23;;;10.40;99.90;;;;;;4950581;29;20102;-76
2022/04/24 04:06:17;;;;;;;17.13;14.80;;;10.40;99.90;;;;;;4949393;29;20133;-77
2022/04/24 04:08:42;;;;;;;18.02;16.20;;;10.40;99.90;;;;;;4956745;29;20031;-77
2022/04/24 04:11:08;;;;;;;18.20;14.90;;;10.40;99.90;;;;;;4950470;29;20597;-76
2022/04/24 04:13:34;;;;;;;18.40;16.60;;;10.40;99.90;;;;;;4956293;29;20027;-76
2022/04/24 04:16:00;;;;;;;18.33;16.20;;;10.40;99.90;;;;;;4950721;29;20066;-75
2022/04/24 04:18:25;;;;;;;17.98;16.10;;;10.40;99.90;;;;;;4954157;29;20059;-76
2022/04/24 04:20:51;;;;;;;18.65;15.88;;;10.40;99.90;;;;;;4951403;29;20029;-76
2022/04/24 04:23:17;;;;;;;20.65;17.70;;;10.40;99.90;;;;;;4949415;29;20043;-77
2022/04/24 04:25:42;;;;;;;22.15;16.80;;;10.40;99.90;;;;;;4950970;29;20043;-77
2022/04/24 04:28:08;;;;;;;18.50;16.65;;;10.40;99.90;;;;;;4952305;29;20040;-76
2022/04/24 04:30:33;;;;;;;19.27;17.25;;;10.40;99.90;;;;;;4939050;29;20030;-78
2022/04/24 04:32:59;;;;;;;22.27;19.63;;;10.30;99.90;;;;;;4937952;29;20031;-77
2022/04/24 04:35:25;;;;;;;22.52;19.38;;;10.40;99.90;;;;;;4952961;29;20489;-78
2022/04/24 04:37:50;;;;;;;22.38;17.65;;;10.40;99.90;;;;;;4951967;28;20027;-76
2022/04/24 04:40:18;;;;;;;23.02;18.20;;;10.40;99.90;;;;;;4954290;29;20023;-77
2022/04/24 04:42:44;;;;;;;24.48;18.77;;;10.40;99.90;;;;;;4934493;29;20482;-77
2022/04/24 04:45:10;;;;;;;23.73;18.83;;;10.60;99.90;;;;;;4955821;29;20139;-77
2022/04/24 04:47:36;;;;;;;27.45;20.08;;;10.60;99.90;;;;;;4951309;29;20091;-76
2022/04/24 04:50:02;;;;;;;23.83;17.60;;;10.50;99.90;;;;;;4955975;29;20023;-76
2022/04/24 04:52:27;;;;;;;8.15;7.07;;;10.40;99.90;;;;;;4940415;29;20034;-77
2022/04/24 04:54:53;;;;;;;7.55;5.38;;;10.10;99.90;;;;;;4955850;29;20035;-77
2022/04/24 04:57:19;;;;;;;4.93;3.85;;;10.10;99.90;;;;;;4949500;29;20057;-77
2022/04/24 04:59:44;;;;;;;6.70;2.70;;;9.90;99.90;;;;;;4949919;29;20047;-77
2022/04/24 05:02:10;;;;;;;2.65;1.67;;;9.80;99.90;;;;;;4950456;29;20137;-77
2022/04/24 05:04:36;;;;;;;2.60;0.90;;;9.70;99.90;;;;;;4940321;29;20460;-76
2022/04/24 05:07:01;;;;;;;2.05;0.77;;;9.50;99.90;;;;;;4947811;29;20031;-76
2022/04/24 05:09:27;;;;;;;0.50;0.50;;;9.50;99.90;;;;;;4925018;29;20528;-77
2022/04/24 05:11:53;;;;;;;1.48;0.60;;;9.40;99.90;;;;;;4962018;28;20031;-76
2022/04/24 05:14:19;;;;;;;1.77;0.40;;;9.40;99.90;;;;;;4956495;29;20051;-76
2022/04/24 05:16:44;;;;;;;0.30;0.30;;;9.40;99.90;;;;;;4947978;29;20055;-76
2022/04/24 05:19:10;;;;;;;3.58;0.22;;;9.30;99.90;;;;;;4949181;29;20034;-76
2022/04/24 05:21:35;;;;;;;0.45;0.40;;;9.20;99.90;;;;;;4955369;29;20027;-76
2022/04/24 05:24:01;;;;;;;2.67;0.50;;;9.20;99.90;;;;;;4946453;29;20032;-77
2022/04/24 05:26:27;;;;;;;1.10;0.30;;;9.20;99.90;;;;;;4955796;28;20126;-78
2022/04/24 05:28:53;;;;;;;1.35;0.20;;;9.10;99.90;;;;;;4954153;29;20031;-77
2022/04/24 05:31:19;;;;;;;0.73;0.20;;;9.10;99.90;;;;;;4960818;28;20509;-77
2022/04/24 05:33:45;;;;;;;0.95;0.40;;;9.00;99.90;;;;;;4949893;29;20031;-76
2022/04/24 05:36:10;;;;;;;0.30;0.20;;;9.00;99.90;;;;;;4952436;28;20508;-77
2022/04/24 05:38:36;;;;;;;0.30;0.20;;;9.00;99.90;;;;;;4958557;28;20093;-77
2022/04/24 05:41:02;;;;;;;0.45;0.30;;;8.90;99.90;;;;;;4936263;29;20031;-78
2022/04/24 05:43:28;;;;;;;0.30;0.22;;;9.00;99.90;;;;;;4951027;29;20038;-78
2022/04/24 05:45:54;;;;;;;0.20;0.20;;;8.90;99.90;;;;;;4948743;29;20032;-77
2022/04/24 05:48:19;;;;;;;2.08;0.32;;;8.90;99.90;;;;;;4949091;29;20110;-76
2022/04/24 05:50:45;;;;;;;0.20;0.20;;;8.80;99.90;;;;;;4934950;29;20451;-76
2022/04/24 05:53:11;;;;;;;0.57;0.28;;;8.80;99.90;;;;;;4950362;29;20027;-76
2022/04/24 05:55:37;;;;;;;0.85;0.68;;;8.70;99.90;;;;;;4942819;29;20484;-77
2022/04/24 05:58:02;;;;;;;0.43;0.30;;;8.80;99.90;;;;;;4952832;28;20059;-77
2022/04/24 06:00:28;;;;;;;0.32;0.30;;;8.70;99.90;;;;;;4947761;29;20032;-77
2022/04/24 06:02:54;;;;;;;1.73;0.20;;;8.70;99.90;;;;;;4951018;29;20031;-76
2022/04/24 06:05:20;;;;;;;0.68;0.20;;;8.70;99.90;;;;;;4956550;28;20027;-77
2022/04/24 06:07:46;;;;;;;1.75;0.35;;;8.70;99.90;;;;;;4949002;29;20038;-77
2022/04/24 06:10:12;;;;;;;0.93;0.17;;;8.60;99.90;;;;;;4931679;29;20019;-76
2022/04/24 06:12:48;;;;;;;0.40;0.30;;;8.70;99.90;;;;;;4950495;29;20028;-77
2022/04/24 06:15:17;;;;;;;0.90;0.30;;;8.60;99.90;;;;;;4946787;29;20550;-77
2022/04/24 06:17:47;;;;;;;0.93;0.20;;;8.60;99.90;;;;;;4949044;29;20447;-77
2022/04/24 06:20:14;;;;;;;0.10;0.10;;;8.70;99.90;;;;;;4928021;29;20511;-76
2022/04/24 06:22:44;;;;;;;0.25;0.10;;;8.70;99.90;;;;;;4934573;29;20557;-76
2022/04/24 06:25:14;;;;;;;0.55;0.20;;;8.70;99.90;;;;;;4955625;28;20058;-77
2022/04/24 06:27:39;;;;;;;0.85;0.30;;;8.60;99.90;;;;;;4935253;29;20038;-77
2022/04/24 06:30:05;;;;;;;0.30;0.10;;;8.70;99.90;;;;;;4957477;29;20027;-77
2022/04/24 06:32:32;;;;;;;0.73;0.20;;;8.70;99.90;;;;;;4939674;29;20489;-76
2022/04/24 06:34:57;;;;;;;0.40;0.20;;;8.70;99.90;;;;;;4937620;28;20027;-76
2022/04/24 06:37:23;;;;;;;0.30;0.20;;;8.60;99.90;;;;;;4966306;28;20015;-76
2022/04/24 06:39:48;;;;;;;0.20;0.20;;;8.60;99.90;;;;;;4951471;29;20071;-77
2022/04/24 06:42:14;;;;;;;0.10;0.10;;;8.60;99.90;;;;;;4956840;29;20481;-77
2022/04/24 06:44:39;;;;;;;0.10;0.10;;;8.60;99.90;;;;;;4959993;29;20034;-78
2022/04/24 06:47:05;;;;;;;1.30;0.20;;;8.60;99.90;;;;;;4933250;29;20494;-79
2022/04/24 06:49:31;;;;;;;0.00;0.00;;;8.80;99.90;;;;;;4944480;28;20074;-77
2022/04/24 06:51:56;;;;;;;0.70;0.20;;;8.80;99.90;;;;;;4951782;29;20045;-77
2022/04/24 06:54:22;;;;;;;0.40;0.20;;;8.90;99.90;;;;;;4953951;29;20102;-78
2022/04/24 06:56:47;;;;;;;1.40;0.20;;;8.90;99.90;;;;;;4964554;28;20031;-76
2022/04/24 06:59:13;;;;;;;0.20;0.20;;;8.90;99.90;;;;;;4956769;28;20100;-77
2022/04/24 07:01:38;;;;;;;0.63;0.20;;;8.90;99.90;;;;;;4976121;28;20051;-77
2022/04/24 07:04:04;;;;;;;0.20;0.20;;;8.90;99.90;;;;;;4969916;28;20040;-77
2022/04/24 07:06:30;;;;;;;0.10;0.10;;;8.90;99.90;;;;;;4970617;28;20087;-77
2022/04/24 07:08:55;;;;;;;0.20;0.20;;;8.90;99.90;;;;;;4956689;29;20035;-78
2022/04/24 07:11:22;;;;;;;0.52;0.30;;;8.90;99.90;;;;;;4952818;29;20027;-77
2022/04/24 07:13:47;;;;;;;0.40;0.20;;;8.90;99.90;;;;;;4942621;29;20023;-77
2022/04/24 07:16:13;;;;;;;0.90;0.20;;;8.90;99.90;;;;;;4957379;29;20070;-77
2022/04/24 07:18:38;;;;;;;0.95;0.55;;;8.90;99.90;;;;;;4958690;29;20031;-79
2022/04/24 07:21:06;;;;;;;0.20;0.20;;;8.90;99.90;;;;;;4934331;29;20023;-78
2022/04/24 07:23:32;;;;;;;0.43;0.20;;;8.90;99.90;;;;;;4949871;29;20016;-78
2022/04/24 07:25:58;;;;;;;1.27;0.20;;;8.90;99.90;;;;;;4949922;29;20023;-77
2022/04/24 07:28:24;;;;;;;0.35;0.20;;;8.90;99.90;;;;;;4933743;29;20023;-77
2022/04/24 07:30:50;;;;;;;0.30;0.20;;;9.00;99.90;;;;;;4955966;29;20026;-77
2022/04/24 07:33:16;;;;;;;0.35;0.28;;;8.90;99.90;;;;;;4939423;29;20023;-77
2022/04/24 07:35:42;;;;;;;0.85;0.40;;;9.00;99.90;;;;;;4941367;29;20123;-76
2022/04/24 07:38:08;;;;;;;0.43;0.30;;;9.10;99.90;;;;;;4950357;29;20039;-77
2022/04/24 07:40:36;;;;;;;0.30;0.20;;;9.20;99.90;;;;;;4951194;29;20540;-77
2022/04/24 07:43:10;;;;;;;0.77;0.20;;;9.10;99.90;;;;;;4956722;29;20069;-78
2022/04/24 07:45:41;;;;;;;0.17;0.17;;;9.10;99.90;;;;;;4952134;29;20062;-78
2022/04/24 07:48:08;;;;;;;0.95;0.30;;;9.00;99.90;;;;;;4948313;29;20395;-78
2022/04/24 07:50:36;;;;;;;0.30;0.20;;;9.00;99.90;;;;;;4952104;29;20015;-77
2022/04/24 07:53:04;;;;;;;0.30;0.30;;;9.30;99.90;;;;;;4957462;29;20049;-79
2022/04/24 07:55:30;;;;;;;0.30;0.30;;;9.20;99.90;;;;;;4953679;29;20054;-76
2022/04/24 07:57:59;;;;;;;0.30;0.30;;;9.10;99.90;;;;;;4952013;29;20023;-78
2022/04/24 08:00:28;;;;;;;0.50;0.28;;;9.10;99.90;;;;;;4956772;29;20027;-77
2022/04/24 08:03:05;;;;;;;0.63;0.40;;;9.20;99.90;;;;;;4945941;29;20054;-78
2022/04/24 08:05:32;;;;;;;0.52;0.30;;;9.30;99.90;;;;;;4938443;29;20070;-78
2022/04/24 08:08:08;;;;;;;0.68;0.25;;;9.30;99.90;;;;;;4949132;29;20032;-78
2022/04/24 08:10:40;;;;;;;0.20;0.20;;;9.30;99.90;;;;;;4952161;29;20106;-78
2022/04/24 08:13:05;;;;;;;;;;;9.30;99.90;;;;;;4960872;28;20030;-77
2022/04/24 08:15:32;;;;;;;1.52;0.43;;;9.30;99.90;;;;;;4946148;29;20297;-78
2022/04/24 08:17:58;;;;;;;2.38;0.75;;;9.20;99.90;;;;;;4946750;29;20035;-78
2022/04/24 08:20:24;;;;;;;1.25;0.60;;;9.30;99.90;;;;;;4933927;29;20024;-78
2022/04/24 08:22:52;;;;;;;1.60;0.70;;;9.20;99.90;;;;;;4939056;29;20047;-78
2022/04/24 08:25:23;;;;;;;0.90;0.70;;;9.20;99.90;;;;;;4957205;29;20031;-78
2022/04/24 08:27:50;;;;;;;2.40;0.52;;;9.30;99.90;;;;;;4953370;29;20027;-78
2022/04/24 08:30:17;;;;;;;0.93;0.80;;;9.40;99.90;;;;;;4957299;29;20034;-80
2022/04/24 08:32:44;;;;;;;1.00;0.73;;;9.40;99.90;;;;;;4956906;28;20056;-78
2022/04/24 08:35:12;;;;;;;0.50;0.30;;;9.40;99.90;;;;;;4940274;29;20027;-79
2022/04/24 08:37:38;;;;;;;0.40;0.22;;;9.40;99.90;;;;;;4956954;29;20027;-80
2022/04/24 08:40:05;;;;;;;0.70;0.30;;;9.40;99.90;;;;;;4949510;29;20518;-78
2022/04/24 08:42:32;;;;;;;1.27;0.40;;;9.50;99.90;;;;;;4937932;29;20055;-78
2022/04/24 08:44:58;;;;;;;0.85;0.40;;;9.40;99.90;;;;;;4953571;28;20034;-78
2022/04/24 08:47:25;;;;;;;0.70;0.60;;;9.50;99.90;;;;;;4948756;29;20295;-78
2022/04/24 08:49:56;;;;;;;1.90;0.60;;;9.50;99.90;;;;;;4950309;29;20027;-78
2022/04/24 08:52:22;;;;;;;;;;;9.50;99.90;;;;;;4939030;29;20023;-77
2022/04/24 08:54:50;;;;;;;0.90;0.80;;;9.60;99.90;;;;;;4954710;28;19911;-77
2022/04/24 08:57:16;;;;;;;3.22;0.40;;;9.50;99.90;;;;;;4948384;29;20036;-79
2022/04/24 08:59:41;;;;;;;0.57;0.47;;;9.60;99.90;;;;;;4950457;29;20092;-79
2022/04/24 09:02:09;;;;;;;1.48;0.60;;;9.60;99.90;;;;;;4953933;28;20040;-78
2022/04/24 09:04:39;;;;;;;2.40;0.57;;;9.70;99.90;;;;;;4953534;29;20030;-78
2022/04/24 09:07:09;;;;;;;0.50;0.50;;;9.80;99.90;;;;;;4954446;29;20035;-78
2022/04/24 09:09:44;;;;;;;0.40;0.30;;;9.90;99.90;;;;;;4946461;29;20036;-78
2022/04/24 09:12:17;;;;;;;0.93;0.52;;;9.90;99.90;;;;;;4936607;29;20042;-78
2022/04/24 09:14:50;;;;;;;0.73;0.40;;;10.00;99.90;;;;;;4950366;29;20107;-77
2022/04/24 09:17:19;;;;;;;0.57;0.43;;;9.90;99.90;;;;;;4949048;29;20023;-78
2022/04/24 09:19:46;;;;;;;2.78;0.68;;;9.90;99.90;;;;;;4950656;29;20173;-76
2022/04/24 09:22:11;;;;;;;0.85;0.73;;;10.00;99.90;;;;;;4952905;29;20039;-78
2022/04/24 09:24:41;;;;;;;1.35;0.82;;;9.90;99.90;;;;;;4949521;29;20026;-77
2022/04/24 09:27:08;;;;;;;3.80;0.50;;;10.00;99.90;;;;;;4953026;29;20023;-77
2022/04/24 09:29:33;;;;;;;0.95;0.55;;;10.00;99.90;;;;;;4951885;29;20075;-79
2022/04/24 09:31:59;;;;;;;0.80;0.50;;;10.00;99.90;;;;;;4955470;29;20043;-78
2022/04/24 09:34:32;;;;;;;0.75;0.55;;;10.10;99.90;;;;;;4955549;28;20082;-79
2022/04/24 09:37:06;;;;;;;4.15;2.88;;;10.00;99.90;;;;;;4948734;29;20023;-78
2022/04/24 09:39:33;;;;;;;1.20;0.85;;;10.10;99.90;;;;;;4963416;28;20039;-78
2022/04/24 09:42:09;;;;;;;0.77;0.50;;;10.10;99.90;;;;;;4955847;29;20063;-78
2022/04/24 09:44:41;;;;;;;0.60;0.60;;;10.20;99.90;;;;;;4953280;29;20085;-78
2022/04/24 09:47:08;;;;;;;0.77;0.60;;;10.40;99.90;;;;;;4954696;29;20051;-77
2022/04/24 09:49:37;;;;;;;0.50;0.45;;;10.40;99.90;;;;;;4958035;29;20071;-77
2022/04/24 09:52:07;;;;;;;1.00;0.65;;;10.40;99.90;;;;;;4938118;29;20050;-78
2022/04/24 09:54:33;;;;;;;0.50;0.40;;;10.40;99.90;;;;;;4952259;29;20057;-78
2022/04/24 09:57:00;;;;;;;2.20;0.70;;;10.30;99.90;;;;;;4945901;28;20039;-79
2022/04/24 09:59:27;;;;;;;1.40;0.77;;;10.40;99.90;;;;;;4963151;28;20398;-78
2022/04/24 10:01:53;;;;;;;2.15;0.60;;;10.60;99.90;;;;;;4938140;29;20034;-78
2022/04/24 10:04:20;;;;;;;1.20;0.60;;;10.60;99.90;;;;;;4945420;29;20032;-79
2022/04/24 10:06:47;;;;;;;2.08;0.77;;;10.50;99.90;;;;;;4934885;29;20065;-79
2022/04/24 10:09:13;;;;;;;0.68;0.60;;;10.50;99.90;;;;;;4948734;29;20042;-78
2022/04/24 10:11:39;;;;;;;0.60;0.40;;;10.50;99.90;;;;;;4937372;29;20110;-78
2022/04/24 10:14:10;;;;;;;1.60;0.82;;;10.40;99.90;;;;;;4952137;29;20561;-79
2022/04/24 10:17:04;;;;;;;1.42;0.70;;;10.60;99.90;;;;;;4955296;29;20034;-78
2022/04/24 10:20:10;;;;;;;1.38;1.27;;;10.70;99.90;;;;;;4944098;29;20034;-80
2022/04/24 10:22:38;;;;;;;3.33;0.93;;;10.70;99.90;;;;;;4943776;29;20605;-78
2022/04/24 10:25:06;;;;;;;1.92;1.45;;;10.70;99.90;;;;;;4951691;29;20152;-78
2022/04/24 10:27:39;;;;;;;1.83;0.60;;;10.90;99.90;;;;;;4932970;29;20090;-77
2022/04/24 10:30:06;;;;;;;0.70;0.55;;;10.80;99.90;;;;;;4943538;29;20035;-77
2022/04/24 10:32:32;;;;;;;2.75;0.70;;;10.90;99.90;;;;;;4949037;29;20023;-77
2022/04/24 10:34:59;;;;;;;1.15;0.85;;;10.90;99.90;;;;;;4952362;29;20094;-77
2022/04/24 10:37:33;;;;;;;1.23;0.88;;;10.90;99.90;;;;;;4937632;29;20564;-78
2022/04/24 10:40:00;;;;;;;1.15;0.68;;;10.80;99.90;;;;;;4946644;29;20434;-78
2022/04/24 10:42:36;;;;;;;1.15;0.70;;;10.80;99.90;;;;;;4951974;29;20061;-77
2022/04/24 10:45:13;;;;;;;2.58;0.80;;;11.10;99.90;;;;;;4945636;29;20031;-78
2022/04/24 10:47:47;;;;;;;1.65;0.60;;;11.00;99.90;;;;;;4943350;29;20019;-78
2022/04/24 10:50:13;;;;;;;1.13;0.80;;;11.00;99.90;;;;;;4944688;29;20485;-77
2022/04/24 10:52:46;;;;;;;1.10;0.80;;;11.00;99.90;;;;;;4931954;29;20020;-78
2022/04/24 10:55:14;;;;;;;1.38;0.70;;;11.00;99.90;;;;;;4944555;29;20023;-78
2022/04/24 10:57:45;;;;;;;1.58;1.15;;;10.90;99.90;;;;;;4929380;29;20023;-78
2022/04/24 11:00:22;;;;;;;1.20;0.80;;;10.90;99.90;;;;;;4945794;29;20050;-79
2022/04/24 11:02:48;;;;;;;2.40;1.00;;;10.90;99.90;;;;;;4956520;28;20449;-78
2022/04/24 11:05:20;;;;;;;1.10;1.00;;;10.80;99.90;;;;;;4945799;29;20055;-77
2022/04/24 11:07:46;;;;;;;3.50;1.08;;;10.60;99.90;;;;;;4936225;29;20054;-78
2022/04/24 11:10:13;;;;;;;2.30;0.98;;;10.60;99.90;;;;;;4948304;29;20021;-77
2022/04/24 11:12:39;;;;;;;1.55;0.65;;;10.50;99.90;;;;;;4957057;28;20493;-77
2022/04/24 11:15:09;;;;;;;1.00;0.50;;;10.60;99.90;;;;;;4946262;29;20067;-79
2022/04/24 11:17:36;;;;;;;0.80;0.60;;;10.70;99.90;;;;;;4950440;29;20031;-77
2022/04/24 11:20:08;;;;;;;0.82;0.70;;;10.70;99.90;;;;;;4948187;29;20565;-78
2022/04/24 11:22:45;;;;;;;0.77;0.70;;;10.80;99.90;;;;;;4953329;29;20630;-78
2022/04/24 11:25:14;;;;;;;1.85;0.82;;;10.90;99.90;;;;;;4952188;29;20036;-78
2022/04/24 11:27:42;;;;;;;2.63;0.70;;;11.10;99.90;;;;;;4931265;29;20054;-78
2022/04/24 11:30:18;;;;;;;0.88;0.82;;;11.20;99.90;;;;;;4933584;29;20113;-78
2022/04/24 11:33:04;;;;;;;3.22;0.60;;;11.30;99.90;;;;;;4947994;29;20027;-78
2022/04/24 11:35:31;;;;;;;1.25;0.80;;;11.20;99.90;;;;;;4952268;28;20015;-78
2022/04/24 11:37:57;;;;;;;0.65;0.65;;;11.50;99.90;;;;;;4938041;29;20031;-78
2022/04/24 11:40:23;;;;;;;1.00;0.60;;;11.20;99.90;;;;;;4947438;29;20030;-78
2022/04/24 11:42:48;;;;;;;1.08;0.50;;;11.20;99.90;;;;;;4945919;29;20019;-78
2022/04/24 11:50:53;;;;;;;1.45;0.52;;;11.10;99.90;;;;;;4953562;29;20054;-78
2022/04/24 11:53:21;;;;;;;1.30;0.60;;;11.50;99.90;;;;;;4933608;29;20028;-78
2022/04/24 11:56:01;;;;;;;0.95;0.70;;;11.30;99.90;;;;;;4931556;29;20020;-79
2022/04/24 11:58:37;;;;;;;0.70;0.60;;;11.20;99.90;;;;;;4932852;29;20024;-78
2022/04/24 12:01:04;;;;;;;0.70;0.60;;;11.30;99.90;;;;;;4945520;29;20031;-78
2022/04/24 12:03:32;;;;;;;0.77;0.47;;;11.40;99.90;;;;;;4952241;28;20086;-78
2022/04/24 12:06:02;;;;;;;0.80;0.52;;;11.50;99.90;;;;;;4928130;29;20083;-78
2022/04/24 12:08:44;;;;;;;0.50;0.40;;;11.40;99.90;;;;;;4936850;29;20107;-78
2022/04/24 12:11:22;;;;;;;1.10;0.40;;;11.30;99.90;;;;;;4953828;29;20502;-78
2022/04/24 12:14:01;;;;;;;0.68;0.68;;;11.30;99.90;;;;;;4965648;29;20020;-77
2022/04/24 12:16:28;;;;;;;0.40;0.40;;;11.40;99.90;;;;;;4974057;28;20030;-76
2022/04/24 12:18:57;;;;;;;0.60;0.60;;;11.80;99.90;;;;;;4966349;28;20024;-78
2022/04/24 12:21:23;;;;;;;0.80;0.50;;;12.00;99.90;;;;;;4961913;28;20027;-78
2022/04/24 12:23:50;;;;;;;0.65;0.40;;;11.90;99.90;;;;;;4942678;29;20051;-79
2022/04/24 12:26:16;;;;;;;0.85;0.55;;;11.90;99.90;;;;;;4941328;29;20437;-78
2022/04/24 12:28:42;;;;;;;0.68;0.50;;;11.80;99.90;;;;;;4958789;29;20030;-78
2022/04/24 12:31:22;;;;;;;1.42;0.57;;;11.90;99.90;;;;;;4942510;29;20031;-78
2022/04/24 12:33:56;;;;;;;0.90;0.55;;;11.90;99.90;;;;;;4973819;29;20092;-78
2022/04/24 12:36:23;;;;;;;0.85;0.52;;;11.90;99.90;;;;;;4954822;29;20401;-79
2022/04/24 12:39:08;;;;;;;2.25;0.60;;;12.20;99.90;;;;;;4951584;29;20059;-79
2022/04/24 12:41:37;;;;;;;2.00;0.88;;;12.30;99.90;;;;;;4937533;29;20034;-79
2022/04/24 12:44:07;;;;;;;2.22;0.60;;;12.20;99.90;;;;;;4932073;29;20062;-78
2022/04/24 12:46:34;;;;;;;2.55;0.50;;;12.30;99.90;;;;;;4933033;29;20027;-78
2022/04/24 12:49:02;;;;;;;2.75;1.45;;;12.30;99.90;;;;;;4949196;29;20038;-79
2022/04/24 12:51:28;;;;;;;1.33;0.50;;;12.20;99.90;;;;;;4950217;29;20053;-78